Woodland Park, Indiana
Current Conditions -  °F | °C
As of 8:15 PM on Monday 22 Dec 2014 (Local Time) from KANQ Reporting Station
Overcast Overcast  
Wind Chill: 26°   Ceiling: 4100
Heat Index: 34°   Visibility: 7mi
Dew Point: 30°   Wind: 9mph
Humidity: 87%   Direction: 120°ESE
Pressure: 29.81"   Gusts: NA
Location:  41.5677°N, 85.3125°W
Report Text: KANQ 230115Z AUTO 12008KT 7SM OVC041 01/M01 A2981 RMK
Loading
Personal Weather Stations






























Interactive Weather Map New forecast layout! Learn more

10-Day Weather Forecast

Advertisements
Track Severe Weather on mobile